sensor_id;sensor_type;location;lat;lon;timestamp;P1;durP1;ratioP1;P2;durP2;ratioP2
5961;SDS011;3007;50.770;0.250;2023-04-15T00:00:59;4.27;;;2.10;;
5961;SDS011;3007;50.770;0.250;2023-04-15T00:03:26;2.60;;;2.40;;
5961;SDS011;3007;50.770;0.250;2023-04-15T00:05:53;2.70;;;2.50;;
5961;SDS011;3007;50.770;0.250;2023-04-15T00:08:21;2.47;;;2.27;;
5961;SDS011;3007;50.770;0.250;2023-04-15T00:10:48;2.47;;;2.27;;
5961;SDS011;3007;50.770;0.250;2023-04-15T00:13:15;3.47;;;3.00;;
5961;SDS011;3007;50.770;0.250;2023-04-15T00:15:42;3.57;;;2.93;;
5961;SDS011;3007;50.770;0.250;2023-04-15T00:18:09;2.87;;;2.67;;
5961;SDS011;3007;50.770;0.250;2023-04-15T00:20:36;3.60;;;3.30;;
5961;SDS011;3007;50.770;0.250;2023-04-15T00:23:03;3.57;;;3.27;;
5961;SDS011;3007;50.770;0.250;2023-04-15T00:25:31;3.57;;;3.27;;
5961;SDS011;3007;50.770;0.250;2023-04-15T00:27:58;3.67;;;3.37;;
5961;SDS011;3007;50.770;0.250;2023-04-15T00:30:25;4.03;;;3.73;;
5961;SDS011;3007;50.770;0.250;2023-04-15T00:32:52;3.50;;;3.20;;
5961;SDS011;3007;50.770;0.250;2023-04-15T00:35:19;4.07;;;3.63;;
5961;SDS011;3007;50.770;0.250;2023-04-15T00:37:46;3.93;;;3.10;;
5961;SDS011;3007;50.770;0.250;2023-04-15T00:40:13;3.60;;;3.30;;
5961;SDS011;3007;50.770;0.250;2023-04-15T00:42:46;3.93;;;3.63;;
5961;SDS011;3007;50.770;0.250;2023-04-15T00:45:13;4.30;;;3.57;;
5961;SDS011;3007;50.770;0.250;2023-04-15T00:47:40;3.90;;;3.60;;
5961;SDS011;3007;50.770;0.250;2023-04-15T00:50:08;4.93;;;3.53;;
5961;SDS011;3007;50.770;0.250;2023-04-15T00:52:36;4.50;;;3.60;;
5961;SDS011;3007;50.770;0.250;2023-04-15T00:55:04;4.97;;;4.47;;
5961;SDS011;3007;50.770;0.250;2023-04-15T00:57:32;5.03;;;4.10;;
5961;SDS011;3007;50.770;0.250;2023-04-15T01:00:00;4.17;;;3.70;;
5961;SDS011;3007;50.770;0.250;2023-04-15T01:02:28;4.70;;;3.70;;
5961;SDS011;3007;50.770;0.250;2023-04-15T01:04:57;3.87;;;3.47;;
5961;SDS011;3007;50.770;0.250;2023-04-15T01:07:24;4.30;;;3.83;;
5961;SDS011;3007;50.770;0.250;2023-04-15T01:09:51;4.40;;;4.00;;
5961;SDS011;3007;50.770;0.250;2023-04-15T01:12:18;4.77;;;3.80;;
5961;SDS011;3007;50.770;0.250;2023-04-15T01:14:45;4.60;;;4.20;;
5961;SDS011;3007;50.770;0.250;2023-04-15T01:17:13;4.90;;;4.40;;
5961;SDS011;3007;50.770;0.250;2023-04-15T01:19:40;4.87;;;4.07;;
5961;SDS011;3007;50.770;0.250;2023-04-15T01:22:07;4.47;;;3.80;;
5961;SDS011;3007;50.770;0.250;2023-04-15T01:24:35;4.90;;;4.40;;
5961;SDS011;3007;50.770;0.250;2023-04-15T01:27:04;5.23;;;4.83;;
5961;SDS011;3007;50.770;0.250;2023-04-15T01:29:31;7.07;;;6.37;;
5961;SDS011;3007;50.770;0.250;2023-04-15T01:32:02;8.13;;;7.33;;
5961;SDS011;3007;50.770;0.250;2023-04-15T01:34:29;8.80;;;7.90;;
5961;SDS011;3007;50.770;0.250;2023-04-15T01:36:56;8.53;;;7.70;;
5961;SDS011;3007;50.770;0.250;2023-04-15T01:39:23;10.07;;;8.33;;
5961;SDS011;3007;50.770;0.250;2023-04-15T01:41:50;10.80;;;8.53;;
5961;SDS011;3007;50.770;0.250;2023-04-15T01:44:18;8.20;;;7.30;;
5961;SDS011;3007;50.770;0.250;2023-04-15T01:46:45;8.53;;;7.63;;
5961;SDS011;3007;50.770;0.250;2023-04-15T01:49:12;7.43;;;6.73;;
5961;SDS011;3007;50.770;0.250;2023-04-15T01:51:39;7.77;;;7.00;;
5961;SDS011;3007;50.770;0.250;2023-04-15T01:54:06;9.43;;;7.87;;
5961;SDS011;3007;50.770;0.250;2023-04-15T01:56:32;8.83;;;8.03;;
5961;SDS011;3007;50.770;0.250;2023-04-15T01:58:59;9.67;;;8.43;;
5961;SDS011;3007;50.770;0.250;2023-04-15T02:01:29;9.50;;;8.53;;
5961;SDS011;3007;50.770;0.250;2023-04-15T02:03:56;8.77;;;7.60;;
5961;SDS011;3007;50.770;0.250;2023-04-15T02:06:22;8.87;;;7.97;;
5961;SDS011;3007;50.770;0.250;2023-04-15T02:08:49;9.57;;;8.07;;
5961;SDS011;3007;50.770;0.250;2023-04-15T02:11:16;10.13;;;9.10;;
5961;SDS011;3007;50.770;0.250;2023-04-15T02:13:43;10.17;;;8.80;;
5961;SDS011;3007;50.770;0.250;2023-04-15T02:16:17;9.53;;;8.57;;
5961;SDS011;3007;50.770;0.250;2023-04-15T02:18:45;9.67;;;8.47;;
5961;SDS011;3007;50.770;0.250;2023-04-15T02:21:12;10.13;;;8.97;;
5961;SDS011;3007;50.770;0.250;2023-04-15T02:23:39;9.13;;;8.20;;
5961;SDS011;3007;50.770;0.250;2023-04-15T02:26:08;10.20;;;8.77;;
5961;SDS011;3007;50.770;0.250;2023-04-15T02:28:35;8.73;;;7.83;;
5961;SDS011;3007;50.770;0.250;2023-04-15T02:31:04;8.67;;;6.93;;
5961;SDS011;3007;50.770;0.250;2023-04-15T02:33:31;10.80;;;6.80;;
5961;SDS011;3007;50.770;0.250;2023-04-15T02:35:59;6.47;;;5.77;;
5961;SDS011;3007;50.770;0.250;2023-04-15T02:38:26;7.10;;;5.80;;
5961;SDS011;3007;50.770;0.250;2023-04-15T02:40:53;6.87;;;5.20;;
5961;SDS011;3007;50.770;0.250;2023-04-15T02:43:20;5.57;;;4.83;;
5961;SDS011;3007;50.770;0.250;2023-04-15T02:45:47;6.60;;;4.30;;
5961;SDS011;3007;50.770;0.250;2023-04-15T02:48:15;7.10;;;5.23;;
5961;SDS011;3007;50.770;0.250;2023-04-15T02:50:44;5.63;;;4.83;;
5961;SDS011;3007;50.770;0.250;2023-04-15T02:53:13;6.77;;;5.03;;
5961;SDS011;3007;50.770;0.250;2023-04-15T02:55:40;5.07;;;4.50;;
5961;SDS011;3007;50.770;0.250;2023-04-15T02:58:07;6.50;;;4.30;;
5961;SDS011;3007;50.770;0.250;2023-04-15T03:00:34;5.13;;;4.20;;
5961;SDS011;3007;50.770;0.250;2023-04-15T03:03:01;4.27;;;3.87;;
5961;SDS011;3007;50.770;0.250;2023-04-15T03:05:29;5.47;;;4.27;;
5961;SDS011;3007;50.770;0.250;2023-04-15T03:07:56;5.60;;;4.00;;
5961;SDS011;3007;50.770;0.250;2023-04-15T03:10:26;4.37;;;3.97;;
5961;SDS011;3007;50.770;0.250;2023-04-15T03:12:53;4.53;;;4.13;;
5961;SDS011;3007;50.770;0.250;2023-04-15T03:15:20;5.10;;;4.60;;
5961;SDS011;3007;50.770;0.250;2023-04-15T03:17:47;6.70;;;5.53;;
5961;SDS011;3007;50.770;0.250;2023-04-15T03:20:14;5.87;;;4.47;;
5961;SDS011;3007;50.770;0.250;2023-04-15T03:22:41;6.40;;;5.07;;
5961;SDS011;3007;50.770;0.250;2023-04-15T03:25:08;5.67;;;5.07;;
5961;SDS011;3007;50.770;0.250;2023-04-15T03:27:36;6.23;;;5.63;;
5961;SDS011;3007;50.770;0.250;2023-04-15T03:30:04;6.93;;;5.40;;
5961;SDS011;3007;50.770;0.250;2023-04-15T03:32:33;6.00;;;5.40;;
5961;SDS011;3007;50.770;0.250;2023-04-15T03:35:00;6.67;;;5.97;;
5961;SDS011;3007;50.770;0.250;2023-04-15T03:37:26;8.87;;;6.77;;
5961;SDS011;3007;50.770;0.250;2023-04-15T03:39:53;8.97;;;7.40;;
5961;SDS011;3007;50.770;0.250;2023-04-15T03:42:20;7.27;;;6.50;;
5961;SDS011;3007;50.770;0.250;2023-04-15T03:44:49;7.60;;;6.87;;
5961;SDS011;3007;50.770;0.250;2023-04-15T03:47:16;9.47;;;6.83;;
5961;SDS011;3007;50.770;0.250;2023-04-15T03:49:43;6.70;;;6.00;;
5961;SDS011;3007;50.770;0.250;2023-04-15T03:52:10;7.30;;;5.87;;
5961;SDS011;3007;50.770;0.250;2023-04-15T03:54:37;7.77;;;6.93;;
5961;SDS011;3007;50.770;0.250;2023-04-15T03:57:03;7.53;;;6.50;;
5961;SDS011;3007;50.770;0.250;2023-04-15T03:59:30;6.70;;;6.00;;
5961;SDS011;3007;50.770;0.250;2023-04-15T04:01:58;7.20;;;5.87;;
5961;SDS011;3007;50.770;0.250;2023-04-15T04:04:25;9.37;;;5.70;;
5961;SDS011;3007;50.770;0.250;2023-04-15T04:06:52;6.83;;;6.13;;
5961;SDS011;3007;50.770;0.250;2023-04-15T04:09:19;6.50;;;5.80;;
5961;SDS011;3007;50.770;0.250;2023-04-15T04:11:46;6.07;;;5.47;;
5961;SDS011;3007;50.770;0.250;2023-04-15T04:14:13;6.30;;;5.70;;
5961;SDS011;3007;50.770;0.250;2023-04-15T04:16:40;8.43;;;5.93;;
5961;SDS011;3007;50.770;0.250;2023-04-15T04:19:08;5.67;;;5.13;;
5961;SDS011;3007;50.770;0.250;2023-04-15T04:21:35;5.60;;;4.97;;
5961;SDS011;3007;50.770;0.250;2023-04-15T04:24:03;5.17;;;4.67;;
5961;SDS011;3007;50.770;0.250;2023-04-15T04:26:30;5.10;;;4.60;;
5961;SDS011;3007;50.770;0.250;2023-04-15T04:28:57;4.90;;;4.50;;
5961;SDS011;3007;50.770;0.250;2023-04-15T04:31:24;5.50;;;4.17;;
5961;SDS011;3007;50.770;0.250;2023-04-15T04:33:51;5.20;;;4.27;;
5961;SDS011;3007;50.770;0.250;2023-04-15T04:36:19;4.23;;;3.83;;
5961;SDS011;3007;50.770;0.250;2023-04-15T04:38:46;4.30;;;3.60;;
5961;SDS011;3007;50.770;0.250;2023-04-15T04:41:13;4.37;;;3.97;;
5961;SDS011;3007;50.770;0.250;2023-04-15T04:43:40;6.10;;;3.87;;
5961;SDS011;3007;50.770;0.250;2023-04-15T04:46:06;4.97;;;3.80;;
5961;SDS011;3007;50.770;0.250;2023-04-15T04:48:34;3.87;;;3.47;;
5961;SDS011;3007;50.770;0.250;2023-04-15T04:51:01;5.43;;;3.77;;
5961;SDS011;3007;50.770;0.250;2023-04-15T04:53:29;3.47;;;3.17;;
5961;SDS011;3007;50.770;0.250;2023-04-15T04:55:56;4.33;;;2.90;;
5961;SDS011;3007;50.770;0.250;2023-04-15T04:58:23;4.20;;;3.47;;
5961;SDS011;3007;50.770;0.250;2023-04-15T05:00:50;8.97;;;3.37;;
5961;SDS011;3007;50.770;0.250;2023-04-15T05:03:17;5.60;;;3.10;;
5961;SDS011;3007;50.770;0.250;2023-04-15T05:05:44;4.40;;;2.90;;
5961;SDS011;3007;50.770;0.250;2023-04-15T05:08:11;3.37;;;3.07;;
5961;SDS011;3007;50.770;0.250;2023-04-15T05:10:39;4.63;;;3.50;;
5961;SDS011;3007;50.770;0.250;2023-04-15T05:13:05;3.47;;;3.17;;
5961;SDS011;3007;50.770;0.250;2023-04-15T05:15:32;3.30;;;2.93;;
5961;SDS011;3007;50.770;0.250;2023-04-15T05:18:01;3.30;;;3.00;;
5961;SDS011;3007;50.770;0.250;2023-04-15T05:20:27;2.73;;;2.53;;
5961;SDS011;3007;50.770;0.250;2023-04-15T05:22:55;3.03;;;2.80;;
5961;SDS011;3007;50.770;0.250;2023-04-15T05:25:21;3.20;;;2.90;;
5961;SDS011;3007;50.770;0.250;2023-04-15T05:27:50;3.50;;;3.20;;
5961;SDS011;3007;50.770;0.250;2023-04-15T05:30:17;4.13;;;3.23;;
5961;SDS011;3007;50.770;0.250;2023-04-15T05:32:44;4.70;;;3.30;;
5961;SDS011;3007;50.770;0.250;2023-04-15T05:35:10;3.53;;;3.23;;
5961;SDS011;3007;50.770;0.250;2023-04-15T05:37:37;2.97;;;2.77;;
5961;SDS011;3007;50.770;0.250;2023-04-15T05:40:05;2.53;;;2.33;;
5961;SDS011;3007;50.770;0.250;2023-04-15T05:42:34;3.30;;;3.00;;
5961;SDS011;3007;50.770;0.250;2023-04-15T05:45:03;3.00;;;2.37;;
5961;SDS011;3007;50.770;0.250;2023-04-15T05:47:33;3.23;;;2.67;;
5961;SDS011;3007;50.770;0.250;2023-04-15T05:50:00;2.80;;;2.60;;
5961;SDS011;3007;50.770;0.250;2023-04-15T05:52:27;2.73;;;2.50;;
5961;SDS011;3007;50.770;0.250;2023-04-15T05:54:54;4.37;;;2.67;;
5961;SDS011;3007;50.770;0.250;2023-04-15T05:57:21;4.97;;;2.80;;
5961;SDS011;3007;50.770;0.250;2023-04-15T05:59:48;2.97;;;2.73;;
5961;SDS011;3007;50.770;0.250;2023-04-15T06:02:18;3.60;;;2.40;;
5961;SDS011;3007;50.770;0.250;2023-04-15T06:04:45;2.90;;;2.60;;
5961;SDS011;3007;50.770;0.250;2023-04-15T06:07:12;2.40;;;2.20;;
5961;SDS011;3007;50.770;0.250;2023-04-15T06:09:39;2.80;;;2.60;;
5961;SDS011;3007;50.770;0.250;2023-04-15T06:12:06;2.13;;;1.97;;
5961;SDS011;3007;50.770;0.250;2023-04-15T06:14:36;2.30;;;2.10;;
5961;SDS011;3007;50.770;0.250;2023-04-15T06:17:03;2.87;;;2.30;;
5961;SDS011;3007;50.770;0.250;2023-04-15T06:19:31;2.50;;;2.00;;
5961;SDS011;3007;50.770;0.250;2023-04-15T06:21:58;2.83;;;2.27;;
5961;SDS011;3007;50.770;0.250;2023-04-15T06:24:25;3.33;;;2.37;;
5961;SDS011;3007;50.770;0.250;2023-04-15T06:26:52;2.07;;;1.90;;
5961;SDS011;3007;50.770;0.250;2023-04-15T06:29:19;2.27;;;2.07;;
5961;SDS011;3007;50.770;0.250;2023-04-15T06:31:46;2.23;;;2.03;;
5961;SDS011;3007;50.770;0.250;2023-04-15T06:34:13;1.80;;;1.70;;
5961;SDS011;3007;50.770;0.250;2023-04-15T06:36:42;2.20;;;2.03;;
5961;SDS011;3007;50.770;0.250;2023-04-15T06:39:09;3.20;;;1.87;;
5961;SDS011;3007;50.770;0.250;2023-04-15T06:41:36;2.20;;;2.00;;
5961;SDS011;3007;50.770;0.250;2023-04-15T06:44:03;2.43;;;2.23;;
5961;SDS011;3007;50.770;0.250;2023-04-15T06:46:30;1.90;;;1.80;;
5961;SDS011;3007;50.770;0.250;2023-04-15T06:48:57;3.37;;;1.73;;
5961;SDS011;3007;50.770;0.250;2023-04-15T06:51:24;2.10;;;1.93;;
5961;SDS011;3007;50.770;0.250;2023-04-15T06:53:52;1.73;;;1.60;;
5961;SDS011;3007;50.770;0.250;2023-04-15T06:56:19;1.73;;;1.63;;
5961;SDS011;3007;50.770;0.250;2023-04-15T06:58:46;1.50;;;1.40;;
5961;SDS011;3007;50.770;0.250;2023-04-15T07:01:13;2.40;;;1.70;;
5961;SDS011;3007;50.770;0.250;2023-04-15T07:03:39;2.20;;;1.80;;
5961;SDS011;3007;50.770;0.250;2023-04-15T07:06:06;1.77;;;1.60;;
5961;SDS011;3007;50.770;0.250;2023-04-15T07:08:34;1.80;;;1.70;;
5961;SDS011;3007;50.770;0.250;2023-04-15T07:11:02;2.10;;;1.80;;
5961;SDS011;3007;50.770;0.250;2023-04-15T07:13:29;2.50;;;1.73;;
5961;SDS011;3007;50.770;0.250;2023-04-15T07:15:57;1.70;;;1.60;;
5961;SDS011;3007;50.770;0.250;2023-04-15T07:18:24;1.73;;;1.63;;
5961;SDS011;3007;50.770;0.250;2023-04-15T07:20:51;2.30;;;2.03;;
5961;SDS011;3007;50.770;0.250;2023-04-15T07:23:18;2.67;;;1.50;;
5961;SDS011;3007;50.770;0.250;2023-04-15T07:25:45;2.10;;;1.97;;
5961;SDS011;3007;50.770;0.250;2023-04-15T07:28:13;1.97;;;1.70;;
5961;SDS011;3007;50.770;0.250;2023-04-15T07:30:40;2.67;;;1.50;;
5961;SDS011;3007;50.770;0.250;2023-04-15T07:33:07;1.40;;;1.30;;
5961;SDS011;3007;50.770;0.250;2023-04-15T07:35:34;2.10;;;1.87;;
5961;SDS011;3007;50.770;0.250;2023-04-15T07:38:00;1.83;;;1.67;;
5961;SDS011;3007;50.770;0.250;2023-04-15T07:40:27;1.70;;;1.60;;
5961;SDS011;3007;50.770;0.250;2023-04-15T07:42:54;1.50;;;1.40;;
5961;SDS011;3007;50.770;0.250;2023-04-15T07:45:23;4.30;;;1.80;;
5961;SDS011;3007;50.770;0.250;2023-04-15T07:47:51;2.77;;;1.63;;
5961;SDS011;3007;50.770;0.250;2023-04-15T07:50:18;2.03;;;1.83;;
5961;SDS011;3007;50.770;0.250;2023-04-15T07:52:45;1.70;;;1.60;;
5961;SDS011;3007;50.770;0.250;2023-04-15T07:55:12;5.80;;;1.40;;
5961;SDS011;3007;50.770;0.250;2023-04-15T07:57:40;1.90;;;1.40;;
5961;SDS011;3007;50.770;0.250;2023-04-15T08:00:07;2.00;;;1.43;;
5961;SDS011;3007;50.770;0.250;2023-04-15T08:02:36;3.37;;;1.60;;
5961;SDS011;3007;50.770;0.250;2023-04-15T08:05:03;1.80;;;1.70;;
5961;SDS011;3007;50.770;0.250;2023-04-15T08:07:31;2.13;;;1.80;;
5961;SDS011;3007;50.770;0.250;2023-04-15T08:09:58;1.80;;;1.60;;
5961;SDS011;3007;50.770;0.250;2023-04-15T08:12:25;2.07;;;1.90;;
5961;SDS011;3007;50.770;0.250;2023-04-15T08:14:52;2.30;;;2.10;;
5961;SDS011;3007;50.770;0.250;2023-04-15T08:17:20;2.43;;;2.20;;
5961;SDS011;3007;50.770;0.250;2023-04-15T08:19:48;1.90;;;1.80;;
5961;SDS011;3007;50.770;0.250;2023-04-15T08:22:15;2.30;;;2.10;;
5961;SDS011;3007;50.770;0.250;2023-04-15T08:24:42;2.70;;;2.20;;
5961;SDS011;3007;50.770;0.250;2023-04-15T08:27:09;2.20;;;2.00;;
5961;SDS011;3007;50.770;0.250;2023-04-15T08:29:36;3.63;;;2.30;;
5961;SDS011;3007;50.770;0.250;2023-04-15T08:32:04;3.87;;;2.20;;
5961;SDS011;3007;50.770;0.250;2023-04-15T08:34:31;2.53;;;1.80;;
5961;SDS011;3007;50.770;0.250;2023-04-15T08:37:00;2.43;;;2.23;;
5961;SDS011;3007;50.770;0.250;2023-04-15T08:39:27;2.40;;;2.20;;
5961;SDS011;3007;50.770;0.250;2023-04-15T08:41:55;2.73;;;2.10;;
5961;SDS011;3007;50.770;0.250;2023-04-15T08:44:27;2.17;;;1.93;;
5961;SDS011;3007;50.770;0.250;2023-04-15T08:46:56;2.57;;;2.10;;
5961;SDS011;3007;50.770;0.250;2023-04-15T08:49:26;1.93;;;1.83;;
5961;SDS011;3007;50.770;0.250;2023-04-15T08:51:54;2.03;;;1.80;;
5961;SDS011;3007;50.770;0.250;2023-04-15T08:54:25;1.90;;;1.80;;
5961;SDS011;3007;50.770;0.250;2023-04-15T08:56:53;2.57;;;1.73;;
5961;SDS011;3007;50.770;0.250;2023-04-15T08:59:20;2.07;;;1.80;;
5961;SDS011;3007;50.770;0.250;2023-04-15T09:01:47;1.80;;;1.67;;
5961;SDS011;3007;50.770;0.250;2023-04-15T09:04:15;3.63;;;1.70;;
5961;SDS011;3007;50.770;0.250;2023-04-15T09:06:42;1.60;;;1.40;;
5961;SDS011;3007;50.770;0.250;2023-04-15T09:09:11;1.57;;;1.47;;
5961;SDS011;3007;50.770;0.250;2023-04-15T09:11:39;1.60;;;1.50;;
5961;SDS011;3007;50.770;0.250;2023-04-15T09:14:07;2.10;;;1.70;;
5961;SDS011;3007;50.770;0.250;2023-04-15T09:19:21;1.83;;;1.60;;
5961;SDS011;3007;50.770;0.250;2023-04-15T09:21:49;3.40;;;1.60;;
5961;SDS011;3007;50.770;0.250;2023-04-15T09:24:17;2.83;;;2.07;;
5961;SDS011;3007;50.770;0.250;2023-04-15T09:26:45;2.33;;;1.87;;
5961;SDS011;3007;50.770;0.250;2023-04-15T09:29:12;4.00;;;1.90;;
5961;SDS011;3007;50.770;0.250;2023-04-15T09:31:40;2.10;;;1.53;;
5961;SDS011;3007;50.770;0.250;2023-04-15T09:34:07;3.70;;;2.10;;
5961;SDS011;3007;50.770;0.250;2023-04-15T09:36:39;2.73;;;2.03;;
5961;SDS011;3007;50.770;0.250;2023-04-15T09:39:18;3.07;;;1.93;;
5961;SDS011;3007;50.770;0.250;2023-04-15T09:41:46;3.67;;;2.03;;
5961;SDS011;3007;50.770;0.250;2023-04-15T09:46:57;4.53;;;2.40;;
5961;SDS011;3007;50.770;0.250;2023-04-15T09:49:24;5.00;;;2.93;;
5961;SDS011;3007;50.770;0.250;2023-04-15T09:51:56;3.23;;;2.33;;
5961;SDS011;3007;50.770;0.250;2023-04-15T09:54:23;2.87;;;2.23;;
5961;SDS011;3007;50.770;0.250;2023-04-15T09:56:52;3.27;;;2.40;;
5961;SDS011;3007;50.770;0.250;2023-04-15T09:59:19;3.77;;;2.33;;
5961;SDS011;3007;50.770;0.250;2023-04-15T10:01:45;3.33;;;1.70;;
5961;SDS011;3007;50.770;0.250;2023-04-15T10:04:12;5.63;;;2.23;;
5961;SDS011;3007;50.770;0.250;2023-04-15T10:06:40;4.87;;;2.33;;
5961;SDS011;3007;50.770;0.250;2023-04-15T10:09:07;2.40;;;2.20;;
5961;SDS011;3007;50.770;0.250;2023-04-15T10:11:34;7.03;;;2.70;;
5961;SDS011;3007;50.770;0.250;2023-04-15T10:14:03;5.07;;;2.53;;
5961;SDS011;3007;50.770;0.250;2023-04-15T10:16:31;4.37;;;2.97;;
5961;SDS011;3007;50.770;0.250;2023-04-15T10:19:00;5.93;;;2.67;;
5961;SDS011;3007;50.770;0.250;2023-04-15T10:21:29;4.73;;;2.87;;
5961;SDS011;3007;50.770;0.250;2023-04-15T10:23:56;4.90;;;3.10;;
5961;SDS011;3007;50.770;0.250;2023-04-15T10:26:23;4.60;;;2.90;;
5961;SDS011;3007;50.770;0.250;2023-04-15T10:28:51;7.10;;;4.20;;
5961;SDS011;3007;50.770;0.250;2023-04-15T10:31:20;9.23;;;3.63;;
5961;SDS011;3007;50.770;0.250;2023-04-15T10:33:48;5.43;;;3.27;;
5961;SDS011;3007;50.770;0.250;2023-04-15T10:36:16;7.53;;;3.40;;
5961;SDS011;3007;50.770;0.250;2023-04-15T10:38:44;7.53;;;3.83;;
5961;SDS011;3007;50.770;0.250;2023-04-15T10:41:12;4.80;;;3.60;;
5961;SDS011;3007;50.770;0.250;2023-04-15T10:43:44;5.57;;;3.80;;
5961;SDS011;3007;50.770;0.250;2023-04-15T10:46:15;7.70;;;4.33;;
5961;SDS011;3007;50.770;0.250;2023-04-15T10:48:49;5.20;;;3.67;;
5961;SDS011;3007;50.770;0.250;2023-04-15T10:51:25;4.03;;;3.10;;
5961;SDS011;3007;50.770;0.250;2023-04-15T10:53:55;6.97;;;3.20;;
5961;SDS011;3007;50.770;0.250;2023-04-15T10:56:22;4.53;;;3.27;;
5961;SDS011;3007;50.770;0.250;2023-04-15T10:58:49;5.53;;;3.50;;
5961;SDS011;3007;50.770;0.250;2023-04-15T11:01:18;7.47;;;3.33;;
5961;SDS011;3007;50.770;0.250;2023-04-15T11:03:48;8.97;;;3.77;;
5961;SDS011;3007;50.770;0.250;2023-04-15T11:06:16;8.53;;;5.07;;
5961;SDS011;3007;50.770;0.250;2023-04-15T11:08:53;5.43;;;3.27;;
5961;SDS011;3007;50.770;0.250;2023-04-15T11:11:22;5.83;;;3.10;;
5961;SDS011;3007;50.770;0.250;2023-04-15T11:14:13;3.97;;;2.77;;
5961;SDS011;3007;50.770;0.250;2023-04-15T11:16:41;4.30;;;3.90;;
5961;SDS011;3007;50.770;0.250;2023-04-15T11:19:11;14.40;;;5.43;;
5961;SDS011;3007;50.770;0.250;2023-04-15T11:21:37;8.17;;;3.87;;
5961;SDS011;3007;50.770;0.250;2023-04-15T11:24:04;5.23;;;3.97;;
5961;SDS011;3007;50.770;0.250;2023-04-15T11:26:32;4.27;;;3.60;;
5961;SDS011;3007;50.770;0.250;2023-04-15T11:28:59;9.17;;;4.53;;
5961;SDS011;3007;50.770;0.250;2023-04-15T11:31:26;5.00;;;3.60;;
5961;SDS011;3007;50.770;0.250;2023-04-15T11:33:54;5.60;;;3.13;;
5961;SDS011;3007;50.770;0.250;2023-04-15T11:36:25;4.87;;;3.17;;
5961;SDS011;3007;50.770;0.250;2023-04-15T11:38:52;7.00;;;3.10;;
5961;SDS011;3007;50.770;0.250;2023-04-15T11:41:20;5.77;;;2.97;;
5961;SDS011;3007;50.770;0.250;2023-04-15T11:43:47;5.50;;;3.10;;
5961;SDS011;3007;50.770;0.250;2023-04-15T11:46:14;6.07;;;2.93;;
5961;SDS011;3007;50.770;0.250;2023-04-15T11:48:42;3.43;;;2.70;;
5961;SDS011;3007;50.770;0.250;2023-04-15T11:51:10;6.53;;;3.20;;
5961;SDS011;3007;50.770;0.250;2023-04-15T11:53:39;4.30;;;2.37;;
5961;SDS011;3007;50.770;0.250;2023-04-15T11:56:08;4.80;;;2.50;;
5961;SDS011;3007;50.770;0.250;2023-04-15T11:58:36;6.30;;;2.93;;
5961;SDS011;3007;50.770;0.250;2023-04-15T12:01:04;4.83;;;2.63;;
5961;SDS011;3007;50.770;0.250;2023-04-15T12:03:35;5.57;;;2.57;;
5961;SDS011;3007;50.770;0.250;2023-04-15T12:06:04;3.60;;;2.30;;
5961;SDS011;3007;50.770;0.250;2023-04-15T12:08:50;5.10;;;2.37;;
5961;SDS011;3007;50.770;0.250;2023-04-15T12:11:18;6.57;;;2.50;;
5961;SDS011;3007;50.770;0.250;2023-04-15T12:13:46;4.20;;;2.37;;
5961;SDS011;3007;50.770;0.250;2023-04-15T12:16:15;8.10;;;2.83;;
5961;SDS011;3007;50.770;0.250;2023-04-15T12:18:43;6.07;;;2.40;;
5961;SDS011;3007;50.770;0.250;2023-04-15T12:21:11;6.20;;;2.87;;
5961;SDS011;3007;50.770;0.250;2023-04-15T12:23:38;4.23;;;2.60;;
5961;SDS011;3007;50.770;0.250;2023-04-15T12:26:14;4.33;;;2.57;;
5961;SDS011;3007;50.770;0.250;2023-04-15T12:28:41;4.77;;;2.80;;
5961;SDS011;3007;50.770;0.250;2023-04-15T12:31:08;4.13;;;2.70;;
5961;SDS011;3007;50.770;0.250;2023-04-15T12:33:35;6.47;;;2.97;;
5961;SDS011;3007;50.770;0.250;2023-04-15T12:36:03;4.23;;;2.63;;
5961;SDS011;3007;50.770;0.250;2023-04-15T12:38:30;4.63;;;2.73;;
5961;SDS011;3007;50.770;0.250;2023-04-15T12:40:57;7.87;;;2.90;;
5961;SDS011;3007;50.770;0.250;2023-04-15T12:43:25;5.57;;;2.60;;
5961;SDS011;3007;50.770;0.250;2023-04-15T12:45:52;8.03;;;2.57;;
5961;SDS011;3007;50.770;0.250;2023-04-15T12:48:19;5.93;;;2.90;;
5961;SDS011;3007;50.770;0.250;2023-04-15T12:50:46;4.00;;;2.97;;
5961;SDS011;3007;50.770;0.250;2023-04-15T12:53:13;6.03;;;3.17;;
5961;SDS011;3007;50.770;0.250;2023-04-15T12:55:40;5.20;;;2.70;;
5961;SDS011;3007;50.770;0.250;2023-04-15T12:58:07;5.17;;;2.43;;
5961;SDS011;3007;50.770;0.250;2023-04-15T13:00:37;4.97;;;2.80;;
5961;SDS011;3007;50.770;0.250;2023-04-15T13:03:04;5.07;;;2.67;;
5961;SDS011;3007;50.770;0.250;2023-04-15T13:05:31;6.17;;;2.83;;
5961;SDS011;3007;50.770;0.250;2023-04-15T13:07:58;6.83;;;2.70;;
5961;SDS011;3007;50.770;0.250;2023-04-15T13:10:24;6.03;;;3.10;;
5961;SDS011;3007;50.770;0.250;2023-04-15T13:12:52;3.73;;;2.70;;
5961;SDS011;3007;50.770;0.250;2023-04-15T13:15:20;6.10;;;3.10;;
5961;SDS011;3007;50.770;0.250;2023-04-15T13:17:48;3.83;;;2.40;;
5961;SDS011;3007;50.770;0.250;2023-04-15T13:20:15;4.93;;;2.70;;
5961;SDS011;3007;50.770;0.250;2023-04-15T13:22:42;3.90;;;2.50;;
5961;SDS011;3007;50.770;0.250;2023-04-15T13:25:09;6.83;;;3.20;;
5961;SDS011;3007;50.770;0.250;2023-04-15T13:27:36;4.37;;;2.70;;
5961;SDS011;3007;50.770;0.250;2023-04-15T13:30:04;7.73;;;3.40;;
5961;SDS011;3007;50.770;0.250;2023-04-15T13:32:31;5.53;;;3.08;;
5961;SDS011;3007;50.770;0.250;2023-04-15T13:34:59;6.50;;;3.10;;
5961;SDS011;3007;50.770;0.250;2023-04-15T13:37:26;3.77;;;2.70;;
5961;SDS011;3007;50.770;0.250;2023-04-15T13:39:54;5.50;;;2.43;;
5961;SDS011;3007;50.770;0.250;2023-04-15T13:42:21;4.53;;;2.27;;
5961;SDS011;3007;50.770;0.250;2023-04-15T13:44:48;3.87;;;2.43;;
5961;SDS011;3007;50.770;0.250;2023-04-15T13:47:16;8.10;;;3.00;;
5961;SDS011;3007;50.770;0.250;2023-04-15T13:49:44;6.60;;;2.53;;
5961;SDS011;3007;50.770;0.250;2023-04-15T13:52:12;5.17;;;2.80;;
5961;SDS011;3007;50.770;0.250;2023-04-15T13:54:39;4.03;;;2.57;;
5961;SDS011;3007;50.770;0.250;2023-04-15T13:57:06;4.00;;;2.40;;
5961;SDS011;3007;50.770;0.250;2023-04-15T13:59:33;5.00;;;2.43;;
5961;SDS011;3007;50.770;0.250;2023-04-15T14:02:00;4.50;;;2.70;;
5961;SDS011;3007;50.770;0.250;2023-04-15T14:04:27;7.73;;;2.90;;
5961;SDS011;3007;50.770;0.250;2023-04-15T14:06:55;4.23;;;2.67;;
5961;SDS011;3007;50.770;0.250;2023-04-15T14:09:23;4.00;;;2.40;;
5961;SDS011;3007;50.770;0.250;2023-04-15T14:11:50;7.27;;;3.10;;
5961;SDS011;3007;50.770;0.250;2023-04-15T14:14:17;4.00;;;2.70;;
5961;SDS011;3007;50.770;0.250;2023-04-15T14:16:43;7.70;;;2.70;;
5961;SDS011;3007;50.770;0.250;2023-04-15T14:19:11;4.80;;;2.50;;
5961;SDS011;3007;50.770;0.250;2023-04-15T14:21:40;4.53;;;2.60;;
5961;SDS011;3007;50.770;0.250;2023-04-15T14:24:07;3.90;;;2.58;;
5961;SDS011;3007;50.770;0.250;2023-04-15T14:26:35;4.43;;;3.03;;
5961;SDS011;3007;50.770;0.250;2023-04-15T14:29:02;3.77;;;2.80;;
5961;SDS011;3007;50.770;0.250;2023-04-15T14:31:29;4.90;;;2.67;;
5961;SDS011;3007;50.770;0.250;2023-04-15T14:33:56;5.23;;;2.67;;
5961;SDS011;3007;50.770;0.250;2023-04-15T14:36:23;6.97;;;3.87;;
5961;SDS011;3007;50.770;0.250;2023-04-15T14:38:50;3.53;;;3.07;;
5961;SDS011;3007;50.770;0.250;2023-04-15T14:41:16;3.73;;;2.93;;
5961;SDS011;3007;50.770;0.250;2023-04-15T14:43:45;5.80;;;2.90;;
5961;SDS011;3007;50.770;0.250;2023-04-15T14:46:12;5.63;;;3.10;;
5961;SDS011;3007;50.770;0.250;2023-04-15T14:48:39;6.63;;;2.90;;
5961;SDS011;3007;50.770;0.250;2023-04-15T14:51:06;9.13;;;2.73;;
5961;SDS011;3007;50.770;0.250;2023-04-15T14:53:33;4.60;;;3.22;;
5961;SDS011;3007;50.770;0.250;2023-04-15T14:56:00;4.97;;;2.97;;
5961;SDS011;3007;50.770;0.250;2023-04-15T14:58:27;6.57;;;2.87;;
5961;SDS011;3007;50.770;0.250;2023-04-15T15:00:55;5.33;;;3.30;;
5961;SDS011;3007;50.770;0.250;2023-04-15T15:03:22;5.72;;;3.10;;
5961;SDS011;3007;50.770;0.250;2023-04-15T15:05:49;5.10;;;3.43;;
5961;SDS011;3007;50.770;0.250;2023-04-15T15:08:15;6.15;;;3.40;;
5961;SDS011;3007;50.770;0.250;2023-04-15T15:10:42;4.23;;;2.50;;
5961;SDS011;3007;50.770;0.250;2023-04-15T15:13:09;3.65;;;2.70;;
5961;SDS011;3007;50.770;0.250;2023-04-15T15:15:38;9.30;;;3.33;;
5961;SDS011;3007;50.770;0.250;2023-04-15T15:18:06;5.57;;;3.30;;
5961;SDS011;3007;50.770;0.250;2023-04-15T15:20:33;4.30;;;2.97;;
5961;SDS011;3007;50.770;0.250;2023-04-15T15:23:00;7.23;;;3.60;;